sensor_id;sensor_type;location;lat;lon;timestamp;pressure;altitude;pressure_sealevel;temperature;humidity
78835;BME280;68187;42.682;23.352;2024-03-07T00:00:11;94972.16;;;8.37;82.89
78835;BME280;68187;42.682;23.352;2024-03-07T00:02:42;94971.16;;;8.43;83.44
78835;BME280;68187;42.682;23.352;2024-03-07T00:05:09;94965.66;;;8.44;83.17
78835;BME280;68187;42.682;23.352;2024-03-07T00:07:37;94969.63;;;8.47;83.58
78835;BME280;68187;42.682;23.352;2024-03-07T00:10:04;94966.44;;;8.45;83.80
78835;BME280;68187;42.682;23.352;2024-03-07T00:12:32;94969.63;;;8.47;83.59
78835;BME280;68187;42.682;23.352;2024-03-07T00:15:01;94960.09;;;8.36;83.47
78835;BME280;68187;42.682;23.352;2024-03-07T00:17:29;94958.47;;;8.35;84.38
78835;BME280;68187;42.682;23.352;2024-03-07T00:19:56;94957.44;;;8.36;84.31
78835;BME280;68187;42.682;23.352;2024-03-07T00:22:23;94930.22;;;8.25;83.83
78835;BME280;68187;42.682;23.352;2024-03-07T00:24:52;94948.22;;;8.33;83.17
78835;BME280;68187;42.682;23.352;2024-03-07T00:27:19;94947.41;;;8.33;83.98
78835;BME280;68187;42.682;23.352;2024-03-07T00:29:46;94946.63;;;8.32;83.73
78835;BME280;68187;42.682;23.352;2024-03-07T00:32:18;94948.66;;;8.25;83.53
78835;BME280;68187;42.682;23.352;2024-03-07T00:34:47;94947.66;;;8.26;83.64
78835;BME280;68187;42.682;23.352;2024-03-07T00:37:14;94943.19;;;8.27;83.04
78835;BME280;68187;42.682;23.352;2024-03-07T00:39:41;94945.97;;;8.20;84.03
78835;BME280;68187;42.682;23.352;2024-03-07T00:42:08;94942.81;;;8.18;83.96
78835;BME280;68187;42.682;23.352;2024-03-07T00:44:35;94933.06;;;8.14;84.55
78835;BME280;68187;42.682;23.352;2024-03-07T00:47:03;94944.88;;;8.11;84.31
78835;BME280;68187;42.682;23.352;2024-03-07T00:49:30;94944.06;;;8.06;84.16
78835;BME280;68187;42.682;23.352;2024-03-07T00:51:59;94937.47;;;8.03;84.17
78835;BME280;68187;42.682;23.352;2024-03-07T00:54:26;94936.63;;;7.93;83.89
78835;BME280;68187;42.682;23.352;2024-03-07T00:56:53;94935.84;;;7.97;83.56
78835;BME280;68187;42.682;23.352;2024-03-07T00:59:20;94942.16;;;7.96;83.89
78835;BME280;68187;42.682;23.352;2024-03-07T01:01:48;94930.25;;;7.88;84.31
78835;BME280;68187;42.682;23.352;2024-03-07T01:04:15;94920.19;;;7.75;84.21
78835;BME280;68187;42.682;23.352;2024-03-07T01:06:43;94924.84;;;7.68;84.73
78835;BME280;68187;42.682;23.352;2024-03-07T01:09:11;94917.94;;;7.57;85.06
78835;BME280;68187;42.682;23.352;2024-03-07T01:11:42;94916.84;;;7.53;85.18
78835;BME280;68187;42.682;23.352;2024-03-07T01:14:10;94911.34;;;7.55;85.16
78835;BME280;68187;42.682;23.352;2024-03-07T01:16:37;94913.22;;;7.59;85.16
78835;BME280;68187;42.682;23.352;2024-03-07T01:19:04;94910.88;;;7.63;85.04
78835;BME280;68187;42.682;23.352;2024-03-07T01:21:32;94906.94;;;7.60;85.17
78835;BME280;68187;42.682;23.352;2024-03-07T01:24:00;94903.31;;;7.71;84.74
78835;BME280;68187;42.682;23.352;2024-03-07T01:26:29;94901.72;;;7.70;84.97
78835;BME280;68187;42.682;23.352;2024-03-07T01:28:56;94905.66;;;7.68;84.78
78835;BME280;68187;42.682;23.352;2024-03-07T01:31:23;94901.72;;;7.65;84.91
78835;BME280;68187;42.682;23.352;2024-03-07T01:33:51;94902.75;;;7.64;85.00
78835;BME280;68187;42.682;23.352;2024-03-07T01:36:18;94906.19;;;7.65;84.21
78835;BME280;68187;42.682;23.352;2024-03-07T01:38:45;94896.47;;;7.65;84.31
78835;BME280;68187;42.682;23.352;2024-03-07T01:41:12;94902.22;;;7.62;84.87
78835;BME280;68187;42.682;23.352;2024-03-07T01:43:42;94901.72;;;7.65;84.68
78835;BME280;68187;42.682;23.352;2024-03-07T01:46:09;94895.13;;;7.63;84.29
78835;BME280;68187;42.682;23.352;2024-03-07T01:48:37;94897.97;;;7.61;84.16
78835;BME280;68187;42.682;23.352;2024-03-07T01:51:06;94890.84;;;7.57;84.67
78835;BME280;68187;42.682;23.352;2024-03-07T01:53:34;94884.25;;;7.54;84.80
78835;BME280;68187;42.682;23.352;2024-03-07T01:56:02;94885.59;;;7.57;85.05
78835;BME280;68187;42.682;23.352;2024-03-07T01:58:30;94892.72;;;7.56;84.71
78835;BME280;68187;42.682;23.352;2024-03-07T02:00:59;94897.59;;;7.48;85.01
78835;BME280;68187;42.682;23.352;2024-03-07T02:03:26;94907.34;;;7.47;85.00
78835;BME280;68187;42.682;23.352;2024-03-07T02:05:53;94905.75;;;7.46;84.96
78835;BME280;68187;42.682;23.352;2024-03-07T02:08:20;94907.91;;;7.54;85.22
78835;BME280;68187;42.682;23.352;2024-03-07T02:10:47;94911.84;;;7.52;85.53
78835;BME280;68187;42.682;23.352;2024-03-07T02:13:15;94913.53;;;7.63;84.96
78835;BME280;68187;42.682;23.352;2024-03-07T02:15:42;94907.75;;;7.66;85.13
78835;BME280;68187;42.682;23.352;2024-03-07T02:18:10;94911.97;;;7.67;84.76
78835;BME280;68187;42.682;23.352;2024-03-07T02:20:37;94907.25;;;7.69;84.48
78835;BME280;68187;42.682;23.352;2024-03-07T02:23:06;94902.25;;;7.67;83.71
78835;BME280;68187;42.682;23.352;2024-03-07T02:25:33;94903.75;;;7.58;83.67
78835;BME280;68187;42.682;23.352;2024-03-07T02:28:03;94896.41;;;7.60;83.06
78835;BME280;68187;42.682;23.352;2024-03-07T02:30:31;94894.69;;;7.44;79.76
78835;BME280;68187;42.682;23.352;2024-03-07T02:32:58;94889.88;;;7.36;81.44
78835;BME280;68187;42.682;23.352;2024-03-07T02:35:32;94894.16;;;7.15;79.48
78835;BME280;68187;42.682;23.352;2024-03-07T02:38:00;94894.38;;;7.09;78.88
78835;BME280;68187;42.682;23.352;2024-03-07T02:40:29;94889.38;;;7.07;78.81
78835;BME280;68187;42.682;23.352;2024-03-07T02:42:56;94899.59;;;7.04;79.62
78835;BME280;68187;42.682;23.352;2024-03-07T02:45:23;94904.88;;;7.09;79.94
78835;BME280;68187;42.682;23.352;2024-03-07T02:47:50;94906.47;;;7.10;79.80
78835;BME280;68187;42.682;23.352;2024-03-07T02:50:19;94909.34;;;7.08;80.94
78835;BME280;68187;42.682;23.352;2024-03-07T02:52:47;94909.94;;;7.15;80.92
78835;BME280;68187;42.682;23.352;2024-03-07T02:55:14;94905.41;;;7.11;81.16
78835;BME280;68187;42.682;23.352;2024-03-07T02:57:42;94912.72;;;7.04;80.47
78835;BME280;68187;42.682;23.352;2024-03-07T03:00:10;94912.72;;;7.04;79.95
78835;BME280;68187;42.682;23.352;2024-03-07T03:02:45;94911.63;;;7.00;80.40
78835;BME280;68187;42.682;23.352;2024-03-07T03:05:12;94918.13;;;6.92;80.25
78835;BME280;68187;42.682;23.352;2024-03-07T03:07:39;94922.84;;;6.95;79.91
78835;BME280;68187;42.682;23.352;2024-03-07T03:10:07;94930.53;;;7.02;80.32
78835;BME280;68187;42.682;23.352;2024-03-07T03:12:36;94927.34;;;6.95;80.67
78835;BME280;68187;42.682;23.352;2024-03-07T03:15:22;94915.03;;;7.00;82.08
78835;BME280;68187;42.682;23.352;2024-03-07T03:17:50;94905.88;;;7.03;82.45
78835;BME280;68187;42.682;23.352;2024-03-07T03:20:17;94910.72;;;7.16;82.39
78835;BME280;68187;42.682;23.352;2024-03-07T03:22:52;94917.66;;;7.00;82.87
78835;BME280;68187;42.682;23.352;2024-03-07T03:25:19;94920.88;;;7.07;82.75
78835;BME280;68187;42.682;23.352;2024-03-07T03:27:46;94915.38;;;7.09;82.78
78835;BME280;68187;42.682;23.352;2024-03-07T03:30:14;94926.31;;;6.74;83.53
78835;BME280;68187;42.682;23.352;2024-03-07T03:32:45;94928.56;;;6.87;82.52
78835;BME280;68187;42.682;23.352;2024-03-07T03:35:13;94928.34;;;6.94;81.80
78835;BME280;68187;42.682;23.352;2024-03-07T03:37:41;94931.03;;;6.99;82.31
78835;BME280;68187;42.682;23.352;2024-03-07T03:40:09;94933.63;;;6.94;82.75
78835;BME280;68187;42.682;23.352;2024-03-07T03:42:37;94949.56;;;6.87;83.39
78835;BME280;68187;42.682;23.352;2024-03-07T03:45:05;94944.59;;;6.91;83.06
78835;BME280;68187;42.682;23.352;2024-03-07T03:47:33;94929.50;;;7.03;82.74
78835;BME280;68187;42.682;23.352;2024-03-07T03:50:03;94919.47;;;6.95;82.94
78835;BME280;68187;42.682;23.352;2024-03-07T03:52:30;94916.53;;;6.91;82.80
78835;BME280;68187;42.682;23.352;2024-03-07T03:54:58;94912.81;;;6.87;82.71
78835;BME280;68187;42.682;23.352;2024-03-07T03:57:25;94910.25;;;6.71;83.63
78835;BME280;68187;42.682;23.352;2024-03-07T03:59:52;94915.84;;;6.79;83.59
78835;BME280;68187;42.682;23.352;2024-03-07T04:02:20;94913.81;;;6.81;83.62
78835;BME280;68187;42.682;23.352;2024-03-07T04:04:47;94910.72;;;6.89;83.44
78835;BME280;68187;42.682;23.352;2024-03-07T04:07:15;94916.66;;;6.80;82.04
78835;BME280;68187;42.682;23.352;2024-03-07T04:09:42;94919.41;;;6.68;81.33
78835;BME280;68187;42.682;23.352;2024-03-07T04:12:10;94917.31;;;6.70;80.38
78835;BME280;68187;42.682;23.352;2024-03-07T04:14:37;94916.00;;;6.68;80.28
78835;BME280;68187;42.682;23.352;2024-03-07T04:17:04;94922.72;;;6.59;79.96
78835;BME280;68187;42.682;23.352;2024-03-07T04:19:33;94928.56;;;6.44;80.28
78835;BME280;68187;42.682;23.352;2024-03-07T04:22:00;94923.63;;;6.47;79.88
78835;BME280;68187;42.682;23.352;2024-03-07T04:24:30;94924.91;;;6.45;79.42
78835;BME280;68187;42.682;23.352;2024-03-07T04:26:59;94926.13;;;6.37;79.50
78835;BME280;68187;42.682;23.352;2024-03-07T04:29:26;94925.88;;;6.39;79.76
78835;BME280;68187;42.682;23.352;2024-03-07T04:31:53;94923.97;;;6.34;80.29
78835;BME280;68187;42.682;23.352;2024-03-07T04:34:20;94927.47;;;6.40;80.56
78835;BME280;68187;42.682;23.352;2024-03-07T04:36:47;94924.91;;;6.45;80.42
78835;BME280;68187;42.682;23.352;2024-03-07T04:39:14;94930.31;;;6.38;80.75
78835;BME280;68187;42.682;23.352;2024-03-07T04:41:51;94929.03;;;6.41;81.31
78835;BME280;68187;42.682;23.352;2024-03-07T04:44:19;94923.31;;;6.44;81.80
78835;BME280;68187;42.682;23.352;2024-03-07T04:46:48;94922.34;;;6.28;81.84
78835;BME280;68187;42.682;23.352;2024-03-07T04:49:16;94924.78;;;6.35;82.00
78835;BME280;68187;42.682;23.352;2024-03-07T04:51:43;94927.84;;;6.27;82.33
78835;BME280;68187;42.682;23.352;2024-03-07T04:54:10;94930.19;;;6.28;82.83
78835;BME280;68187;42.682;23.352;2024-03-07T04:56:37;94930.81;;;6.35;82.20
78835;BME280;68187;42.682;23.352;2024-03-07T04:59:05;94936.91;;;6.41;82.33
78835;BME280;68187;42.682;23.352;2024-03-07T05:01:32;94944.59;;;6.47;82.04
78835;BME280;68187;42.682;23.352;2024-03-07T05:03:59;94947.72;;;6.44;80.63
78835;BME280;68187;42.682;23.352;2024-03-07T05:06:26;94944.84;;;6.24;80.43
78835;BME280;68187;42.682;23.352;2024-03-07T05:08:54;94959.44;;;6.20;80.94
78835;BME280;68187;42.682;23.352;2024-03-07T05:11:21;94961.63;;;6.07;80.23
78835;BME280;68187;42.682;23.352;2024-03-07T05:13:48;94968.00;;;5.94;80.56
78835;BME280;68187;42.682;23.352;2024-03-07T05:16:16;94961.56;;;5.85;80.45
78835;BME280;68187;42.682;23.352;2024-03-07T05:18:45;94957.00;;;5.81;81.63
78835;BME280;68187;42.682;23.352;2024-03-07T05:21:12;94956.63;;;5.72;81.41
78835;BME280;68187;42.682;23.352;2024-03-07T05:24:04;94955.00;;;5.54;81.60
78835;BME280;68187;42.682;23.352;2024-03-07T05:26:31;94952.84;;;5.35;81.57
78835;BME280;68187;42.682;23.352;2024-03-07T05:29:01;94964.53;;;5.44;81.52
78835;BME280;68187;42.682;23.352;2024-03-07T05:31:32;94964.63;;;5.49;81.60
78835;BME280;68187;42.682;23.352;2024-03-07T05:34:01;94966.38;;;5.60;81.71
78835;BME280;68187;42.682;23.352;2024-03-07T05:36:30;94967.25;;;5.65;82.16
78835;BME280;68187;42.682;23.352;2024-03-07T05:38:58;94968.13;;;5.71;81.66
78835;BME280;68187;42.682;23.352;2024-03-07T05:41:25;94965.03;;;5.74;81.69
78835;BME280;68187;42.682;23.352;2024-03-07T05:43:55;94978.03;;;5.69;81.18
78835;BME280;68187;42.682;23.352;2024-03-07T05:46:22;94965.00;;;5.57;82.22
78835;BME280;68187;42.682;23.352;2024-03-07T05:48:50;94970.56;;;5.77;81.62
78835;BME280;68187;42.682;23.352;2024-03-07T05:51:22;94971.94;;;5.80;80.85
78835;BME280;68187;42.682;23.352;2024-03-07T05:53:50;94967.59;;;5.86;81.53
78835;BME280;68187;42.682;23.352;2024-03-07T05:56:16;94969.19;;;5.87;81.19
78835;BME280;68187;42.682;23.352;2024-03-07T05:58:43;94979.31;;;5.83;81.22
78835;BME280;68187;42.682;23.352;2024-03-07T06:01:10;94984.09;;;5.86;81.15
78835;BME280;68187;42.682;23.352;2024-03-07T06:03:39;94980.00;;;5.90;80.35
78835;BME280;68187;42.682;23.352;2024-03-07T06:06:07;94979.75;;;5.92;80.02
78835;BME280;68187;42.682;23.352;2024-03-07T06:08:37;94978.56;;;5.99;80.22
78835;BME280;68187;42.682;23.352;2024-03-07T06:11:04;94981.19;;;5.99;80.07
78835;BME280;68187;42.682;23.352;2024-03-07T06:13:31;94986.44;;;5.99;79.05
78835;BME280;68187;42.682;23.352;2024-03-07T06:15:58;94986.81;;;5.91;80.37
78835;BME280;68187;42.682;23.352;2024-03-07T06:18:29;94981.91;;;5.95;80.78
78835;BME280;68187;42.682;23.352;2024-03-07T06:20:56;94993.41;;;5.94;81.04
78835;BME280;68187;42.682;23.352;2024-03-07T06:23:25;94995.72;;;5.90;80.61
78835;BME280;68187;42.682;23.352;2024-03-07T06:25:54;95015.56;;;5.86;79.83
78835;BME280;68187;42.682;23.352;2024-03-07T06:28:24;95020.31;;;5.89;79.03
78835;BME280;68187;42.682;23.352;2024-03-07T06:30:51;95009.84;;;5.89;78.77
78835;BME280;68187;42.682;23.352;2024-03-07T06:33:17;95003.16;;;5.98;78.42
78835;BME280;68187;42.682;23.352;2024-03-07T06:35:45;95011.66;;;6.05;79.12
78835;BME280;68187;42.682;23.352;2024-03-07T06:38:12;95005.72;;;6.10;79.10
78835;BME280;68187;42.682;23.352;2024-03-07T06:40:41;95004.19;;;6.14;78.64
78835;BME280;68187;42.682;23.352;2024-03-07T06:43:09;94997.28;;;6.08;80.67
78835;BME280;68187;42.682;23.352;2024-03-07T06:45:36;94999.03;;;6.19;80.50
78835;BME280;68187;42.682;23.352;2024-03-07T06:48:04;94992.97;;;6.18;79.93
78835;BME280;68187;42.682;23.352;2024-03-07T06:50:32;94998.38;;;6.28;79.64
78835;BME280;68187;42.682;23.352;2024-03-07T06:52:59;95006.09;;;6.18;79.56
78835;BME280;68187;42.682;23.352;2024-03-07T06:55:26;94985.00;;;6.08;80.29
78835;BME280;68187;42.682;23.352;2024-03-07T06:57:55;95014.13;;;6.28;79.19
78835;BME280;68187;42.682;23.352;2024-03-07T07:00:22;95018.56;;;6.28;79.18
78835;BME280;68187;42.682;23.352;2024-03-07T07:02:49;95013.88;;;6.30;79.04
78835;BME280;68187;42.682;23.352;2024-03-07T07:05:16;95011.59;;;6.33;79.55
78835;BME280;68187;42.682;23.352;2024-03-07T07:07:44;95010.44;;;6.29;79.28
78835;BME280;68187;42.682;23.352;2024-03-07T07:10:12;95001.41;;;6.20;78.07
78835;BME280;68187;42.682;23.352;2024-03-07T07:12:44;94995.84;;;6.17;78.83
78835;BME280;68187;42.682;23.352;2024-03-07T07:15:14;94996.00;;;6.27;78.92
78835;BME280;68187;42.682;23.352;2024-03-07T07:17:41;94997.13;;;6.31;78.20
78835;BME280;68187;42.682;23.352;2024-03-07T07:20:11;94989.88;;;6.38;79.29
78835;BME280;68187;42.682;23.352;2024-03-07T07:22:40;94976.03;;;6.42;78.71
78835;BME280;68187;42.682;23.352;2024-03-07T07:25:08;94980.13;;;6.55;78.52
78835;BME280;68187;42.682;23.352;2024-03-07T07:27:40;94993.50;;;6.54;79.13
78835;BME280;68187;42.682;23.352;2024-03-07T07:30:09;94993.56;;;6.59;79.48
78835;BME280;68187;42.682;23.352;2024-03-07T07:32:38;94985.25;;;6.67;78.08
78835;BME280;68187;42.682;23.352;2024-03-07T07:35:05;94995.31;;;6.75;77.37
78835;BME280;68187;42.682;23.352;2024-03-07T07:37:37;94981.53;;;6.84;79.06
78835;BME280;68187;42.682;23.352;2024-03-07T07:40:05;94980.88;;;6.94;78.67
78835;BME280;68187;42.682;23.352;2024-03-07T07:42:34;94983.09;;;7.07;78.21
78835;BME280;68187;42.682;23.352;2024-03-07T07:45:06;94980.41;;;7.24;78.33
78835;BME280;68187;42.682;23.352;2024-03-07T07:47:38;94981.44;;;7.22;78.73
78835;BME280;68187;42.682;23.352;2024-03-07T07:50:07;94982.91;;;7.35;78.01
78835;BME280;68187;42.682;23.352;2024-03-07T07:52:40;94966.59;;;7.33;78.10
78835;BME280;68187;42.682;23.352;2024-03-07T07:55:08;94969.50;;;7.37;77.37
78835;BME280;68187;42.682;23.352;2024-03-07T07:57:41;94974.00;;;7.41;76.45
78835;BME280;68187;42.682;23.352;2024-03-07T08:00:10;94970.78;;;7.34;76.15
78835;BME280;68187;42.682;23.352;2024-03-07T08:02:38;94978.66;;;7.29;77.77
78835;BME280;68187;42.682;23.352;2024-03-07T08:05:06;94972.25;;;7.47;76.87
78835;BME280;68187;42.682;23.352;2024-03-07T08:07:33;94971.69;;;7.45;77.18
78835;BME280;68187;42.682;23.352;2024-03-07T08:10:00;94970.97;;;7.54;77.18
78835;BME280;68187;42.682;23.352;2024-03-07T08:12:27;94979.03;;;7.43;77.17
78835;BME280;68187;42.682;23.352;2024-03-07T08:14:54;94995.28;;;7.40;77.67
78835;BME280;68187;42.682;23.352;2024-03-07T08:17:21;94997.97;;;7.45;77.75
78835;BME280;68187;42.682;23.352;2024-03-07T08:19:50;95004.25;;;7.44;77.45
78835;BME280;68187;42.682;23.352;2024-03-07T08:22:16;95000.28;;;7.41;77.58
78835;BME280;68187;42.682;23.352;2024-03-07T08:24:44;94999.84;;;7.49;76.04
78835;BME280;68187;42.682;23.352;2024-03-07T08:27:12;95004.13;;;7.55;75.76
78835;BME280;68187;42.682;23.352;2024-03-07T08:29:38;95006.00;;;7.60;74.32
78835;BME280;68187;42.682;23.352;2024-03-07T08:32:07;95013.13;;;7.64;74.57
78835;BME280;68187;42.682;23.352;2024-03-07T08:34:33;95021.63;;;7.45;75.89
78835;BME280;68187;42.682;23.352;2024-03-07T08:37:02;95029.78;;;7.48;73.72
78835;BME280;68187;42.682;23.352;2024-03-07T08:39:30;95029.50;;;7.45;74.92
78835;BME280;68187;42.682;23.352;2024-03-07T08:41:57;95027.09;;;7.43;74.91
78835;BME280;68187;42.682;23.352;2024-03-07T08:44:24;95032.81;;;7.35;76.36
78835;BME280;68187;42.682;23.352;2024-03-07T08:46:51;95023.31;;;7.56;76.04
78835;BME280;68187;42.682;23.352;2024-03-07T08:49:18;95034.69;;;7.66;74.56
78835;BME280;68187;42.682;23.352;2024-03-07T08:51:45;95041.25;;;7.64;74.00
78835;BME280;68187;42.682;23.352;2024-03-07T08:54:14;95041.38;;;7.52;74.91
78835;BME280;68187;42.682;23.352;2024-03-07T08:56:41;95042.72;;;7.55;75.60
78835;BME280;68187;42.682;23.352;2024-03-07T08:59:08;95048.84;;;7.60;75.16
78835;BME280;68187;42.682;23.352;2024-03-07T09:01:41;95048.09;;;7.65;75.30
78835;BME280;68187;42.682;23.352;2024-03-07T09:04:09;95043.81;;;7.59;75.85
78835;BME280;68187;42.682;23.352;2024-03-07T09:06:37;95044.19;;;7.67;75.65
78835;BME280;68187;42.682;23.352;2024-03-07T09:09:04;95037.97;;;7.78;76.35
78835;BME280;68187;42.682;23.352;2024-03-07T09:11:35;95040.63;;;7.78;75.77
78835;BME280;68187;42.682;23.352;2024-03-07T09:14:04;95045.81;;;7.73;74.32
78835;BME280;68187;42.682;23.352;2024-03-07T09:16:35;95047.25;;;7.59;75.10
78835;BME280;68187;42.682;23.352;2024-03-07T09:19:01;95050.19;;;7.63;75.33
78835;BME280;68187;42.682;23.352;2024-03-07T09:21:28;95050.41;;;7.61;74.59
78835;BME280;68187;42.682;23.352;2024-03-07T09:23:55;95050.03;;;7.74;74.28
78835;BME280;68187;42.682;23.352;2024-03-07T09:26:23;95054.84;;;7.82;74.48
78835;BME280;68187;42.682;23.352;2024-03-07T09:28:52;95054.84;;;7.82;74.38
78835;BME280;68187;42.682;23.352;2024-03-07T09:31:20;95050.44;;;7.88;72.83
78835;BME280;68187;42.682;23.352;2024-03-07T09:33:47;95048.56;;;7.88;73.67
78835;BME280;68187;42.682;23.352;2024-03-07T09:36:15;95049.13;;;7.90;73.25
78835;BME280;68187;42.682;23.352;2024-03-07T09:38:44;95048.56;;;7.83;74.10
78835;BME280;68187;42.682;23.352;2024-03-07T09:41:11;95053.28;;;7.86;73.15
78835;BME280;68187;42.682;23.352;2024-03-07T09:43:39;95052.66;;;8.01;72.73
78835;BME280;68187;42.682;23.352;2024-03-07T09:46:11;95046.47;;;7.85;72.85
78835;BME280;68187;42.682;23.352;2024-03-07T09:48:38;95044.75;;;8.01;72.38
78835;BME280;68187;42.682;23.352;2024-03-07T09:51:06;95045.88;;;8.10;72.03
78835;BME280;68187;42.682;23.352;2024-03-07T09:53:37;95047.81;;;8.20;72.57
78835;BME280;68187;42.682;23.352;2024-03-07T09:56:04;95054.63;;;8.21;71.54
78835;BME280;68187;42.682;23.352;2024-03-07T09:58:33;95051.75;;;8.22;71.85
78835;BME280;68187;42.682;23.352;2024-03-07T10:01:02;95054.16;;;8.24;72.93
78835;BME280;68187;42.682;23.352;2024-03-07T10:03:34;95042.97;;;8.38;71.32
78835;BME280;68187;42.682;23.352;2024-03-07T10:06:02;95045.03;;;8.31;70.94
78835;BME280;68187;42.682;23.352;2024-03-07T10:08:30;95044.06;;;8.16;73.43
78835;BME280;68187;42.682;23.352;2024-03-07T10:10:57;95039.94;;;8.25;74.63
78835;BME280;68187;42.682;23.352;2024-03-07T10:13:26;95031.44;;;8.13;73.20
78835;BME280;68187;42.682;23.352;2024-03-07T10:15:54;95028.63;;;8.24;73.53
78835;BME280;68187;42.682;23.352;2024-03-07T10:18:25;95023.06;;;8.52;73.42
78835;BME280;68187;42.682;23.352;2024-03-07T10:20:54;95016.56;;;8.70;72.14
78835;BME280;68187;42.682;23.352;2024-03-07T10:23:21;95016.38;;;8.82;70.97
78835;BME280;68187;42.682;23.352;2024-03-07T10:25:49;95015.16;;;8.99;70.55
78835;BME280;68187;42.682;23.352;2024-03-07T10:28:17;95009.13;;;9.09;70.56
78835;BME280;68187;42.682;23.352;2024-03-07T10:30:44;95012.34;;;9.21;70.74
78835;BME280;68187;42.682;23.352;2024-03-07T10:33:12;95007.13;;;9.31;69.15
78835;BME280;68187;42.682;23.352;2024-03-07T10:35:40;95015.50;;;9.23;67.70
78835;BME280;68187;42.682;23.352;2024-03-07T10:38:09;95017.13;;;9.29;67.85
78835;BME280;68187;42.682;23.352;2024-03-07T10:40:39;95021.03;;;9.21;68.41
78835;BME280;68187;42.682;23.352;2024-03-07T10:43:10;95003.00;;;8.93;68.50
78835;BME280;68187;42.682;23.352;2024-03-07T10:45:44;95003.59;;;9.05;68.96
78835;BME280;68187;42.682;23.352;2024-03-07T10:48:12;95007.00;;;9.11;68.20
78835;BME280;68187;42.682;23.352;2024-03-07T10:50:47;95007.25;;;9.04;68.30
78835;BME280;68187;42.682;23.352;2024-03-07T10:53:19;95014.69;;;9.12;68.95
78835;BME280;68187;42.682;23.352;2024-03-07T10:56:08;95008.38;;;9.18;69.34
78835;BME280;68187;42.682;23.352;2024-03-07T10:58:48;95003.53;;;8.95;68.52
78835;BME280;68187;42.682;23.352;2024-03-07T11:01:20;95002.53;;;9.01;69.16
78835;BME280;68187;42.682;23.352;2024-03-07T11:03:47;94998.81;;;9.02;68.60
78835;BME280;68187;42.682;23.352;2024-03-07T11:06:17;94996.16;;;8.97;68.66
78835;BME280;68187;42.682;23.352;2024-03-07T11:08:46;95001.97;;;8.94;67.79
78835;BME280;68187;42.682;23.352;2024-03-07T11:11:13;94998.25;;;8.95;68.25
78835;BME280;68187;42.682;23.352;2024-03-07T11:13:40;94998.59;;;9.04;67.84
78835;BME280;68187;42.682;23.352;2024-03-07T11:16:08;94996.47;;;9.06;68.62
78835;BME280;68187;42.682;23.352;2024-03-07T11:18:36;94992.53;;;9.13;68.90
78835;BME280;68187;42.682;23.352;2024-03-07T11:21:03;94997.28;;;9.11;69.13
78835;BME280;68187;42.682;23.352;2024-03-07T11:23:33;95000.97;;;9.10;69.57
78835;BME280;68187;42.682;23.352;2024-03-07T11:26:05;94996.72;;;8.99;70.69
78835;BME280;68187;42.682;23.352;2024-03-07T11:28:34;95001.41;;;8.87;70.21
78835;BME280;68187;42.682;23.352;2024-03-07T11:31:10;94989.78;;;8.78;70.37
78835;BME280;68187;42.682;23.352;2024-03-07T11:33:39;94995.28;;;8.72;69.93
78835;BME280;68187;42.682;23.352;2024-03-07T11:36:07;94992.59;;;8.67;72.21
78835;BME280;68187;42.682;23.352;2024-03-07T11:38:35;94985.50;;;8.67;70.89
78835;BME280;68187;42.682;23.352;2024-03-07T11:41:05;94982.25;;;8.50;71.73
78835;BME280;68187;42.682;23.352;2024-03-07T11:43:34;94986.25;;;8.57;71.42
78835;BME280;68187;42.682;23.352;2024-03-07T11:46:01;94982.03;;;8.61;71.09
78835;BME280;68187;42.682;23.352;2024-03-07T11:48:28;94973.09;;;8.57;71.25
78835;BME280;68187;42.682;23.352;2024-03-07T11:50:56;94982.88;;;8.67;70.73
78835;BME280;68187;42.682;23.352;2024-03-07T11:53:23;94977.50;;;8.47;71.13
78835;BME280;68187;42.682;23.352;2024-03-07T11:55:50;94970.69;;;8.51;71.26
78835;BME280;68187;42.682;23.352;2024-03-07T11:58:21;94971.47;;;8.56;72.21
78835;BME280;68187;42.682;23.352;2024-03-07T12:00:49;94978.72;;;8.76;72.54
78835;BME280;68187;42.682;23.352;2024-03-07T12:03:17;94969.88;;;8.50;72.21
78835;BME280;68187;42.682;23.352;2024-03-07T12:05:47;94968.88;;;8.61;71.45
78835;BME280;68187;42.682;23.352;2024-03-07T12:08:14;94973.94;;;8.73;71.70
78835;BME280;68187;42.682;23.352;2024-03-07T12:10:42;94969.22;;;8.75;71.30
78835;BME280;68187;42.682;23.352;2024-03-07T12:13:10;94963.72;;;8.77;70.90
78835;BME280;68187;42.682;23.352;2024-03-07T12:15:39;94969.81;;;8.92;70.91
78835;BME280;68187;42.682;23.352;2024-03-07T12:18:07;94973.28;;;9.03;70.83
78835;BME280;68187;42.682;23.352;2024-03-07T12:20:41;94957.47;;;9.03;71.27
78835;BME280;68187;42.682;23.352;2024-03-07T12:23:12;94973.84;;;9.10;70.23
78835;BME280;68187;42.682;23.352;2024-03-07T12:25:39;94965.09;;;8.94;70.45
78835;BME280;68187;42.682;23.352;2024-03-07T12:28:08;94967.19;;;8.97;70.41
78835;BME280;68187;42.682;23.352;2024-03-07T12:30:49;94965.03;;;8.84;72.11
78835;BME280;68187;42.682;23.352;2024-03-07T12:33:17;94963.53;;;8.98;70.36
78835;BME280;68187;42.682;23.352;2024-03-07T12:35:46;94969.75;;;8.77;70.46
78835;BME280;68187;42.682;23.352;2024-03-07T12:38:13;94971.28;;;8.63;71.46
78835;BME280;68187;42.682;23.352;2024-03-07T12:40:42;94972.75;;;8.44;71.81
78835;BME280;68187;42.682;23.352;2024-03-07T12:43:17;94978.53;;;8.46;71.59
78835;BME280;68187;42.682;23.352;2024-03-07T12:45:49;94975.69;;;8.52;71.09
78835;BME280;68187;42.682;23.352;2024-03-07T12:48:17;94971.28;;;8.63;71.07
78835;BME280;68187;42.682;23.352;2024-03-07T12:50:45;94957.09;;;8.69;70.27
78835;BME280;68187;42.682;23.352;2024-03-07T12:53:16;94964.31;;;8.42;71.46
78835;BME280;68187;42.682;23.352;2024-03-07T12:55:44;94960.13;;;8.46;71.11
78835;BME280;68187;42.682;23.352;2024-03-07T12:58:12;94950.63;;;8.40;70.71
78835;BME280;68187;42.682;23.352;2024-03-07T13:00:39;94955.69;;;8.56;71.83
78835;BME280;68187;42.682;23.352;2024-03-07T13:03:08;94957.13;;;8.74;71.85
78835;BME280;68187;42.682;23.352;2024-03-07T13:05:35;94951.31;;;8.77;70.10